sensor_id;sensor_type;location;lat;lon;timestamp;P1;durP1;ratioP1;P2;durP2;ratioP2
8675;SDS011;4375;52.486;13.424;2022-07-25T00:02:20;15.20;;;2.47;;
8675;SDS011;4375;52.486;13.424;2022-07-25T00:04:46;15.40;;;2.97;;
8675;SDS011;4375;52.486;13.424;2022-07-25T00:07:12;16.23;;;2.77;;
8675;SDS011;4375;52.486;13.424;2022-07-25T00:09:39;15.30;;;2.63;;
8675;SDS011;4375;52.486;13.424;2022-07-25T00:12:04;16.63;;;2.70;;
8675;SDS011;4375;52.486;13.424;2022-07-25T00:14:30;16.47;;;2.83;;
8675;SDS011;4375;52.486;13.424;2022-07-25T00:16:56;15.60;;;2.30;;
8675;SDS011;4375;52.486;13.424;2022-07-25T00:19:22;16.40;;;2.67;;
8675;SDS011;4375;52.486;13.424;2022-07-25T00:21:47;15.60;;;2.60;;
8675;SDS011;4375;52.486;13.424;2022-07-25T00:24:13;15.20;;;2.80;;
8675;SDS011;4375;52.486;13.424;2022-07-25T00:26:39;15.67;;;2.80;;
8675;SDS011;4375;52.486;13.424;2022-07-25T00:29:04;18.30;;;2.50;;
8675;SDS011;4375;52.486;13.424;2022-07-25T00:31:30;16.33;;;2.47;;
8675;SDS011;4375;52.486;13.424;2022-07-25T00:33:55;14.73;;;2.47;;
8675;SDS011;4375;52.486;13.424;2022-07-25T00:36:21;14.70;;;2.20;;
8675;SDS011;4375;52.486;13.424;2022-07-25T00:38:47;17.07;;;2.83;;
8675;SDS011;4375;52.486;13.424;2022-07-25T00:41:12;15.50;;;2.80;;
8675;SDS011;4375;52.486;13.424;2022-07-25T00:43:41;15.23;;;2.80;;
8675;SDS011;4375;52.486;13.424;2022-07-25T00:46:10;15.47;;;2.90;;
8675;SDS011;4375;52.486;13.424;2022-07-25T00:48:39;15.73;;;2.80;;
8675;SDS011;4375;52.486;13.424;2022-07-25T00:51:05;14.37;;;2.10;;
8675;SDS011;4375;52.486;13.424;2022-07-25T00:53:31;16.13;;;2.53;;
8675;SDS011;4375;52.486;13.424;2022-07-25T00:55:57;15.47;;;3.03;;
8675;SDS011;4375;52.486;13.424;2022-07-25T00:58:23;16.47;;;2.63;;
8675;SDS011;4375;52.486;13.424;2022-07-25T01:00:48;14.47;;;2.20;;
8675;SDS011;4375;52.486;13.424;2022-07-25T01:03:14;15.17;;;2.33;;
8675;SDS011;4375;52.486;13.424;2022-07-25T01:05:40;16.27;;;2.57;;
8675;SDS011;4375;52.486;13.424;2022-07-25T01:08:06;16.83;;;2.60;;
8675;SDS011;4375;52.486;13.424;2022-07-25T01:10:33;16.77;;;2.60;;
8675;SDS011;4375;52.486;13.424;2022-07-25T01:12:59;19.50;;;3.10;;
8675;SDS011;4375;52.486;13.424;2022-07-25T01:15:25;14.70;;;2.67;;
8675;SDS011;4375;52.486;13.424;2022-07-25T01:17:51;21.33;;;2.60;;
8675;SDS011;4375;52.486;13.424;2022-07-25T01:20:17;16.67;;;2.97;;
8675;SDS011;4375;52.486;13.424;2022-07-25T01:22:45;15.60;;;2.90;;
8675;SDS011;4375;52.486;13.424;2022-07-25T01:25:11;14.43;;;2.40;;
8675;SDS011;4375;52.486;13.424;2022-07-25T01:27:37;15.40;;;3.20;;
8675;SDS011;4375;52.486;13.424;2022-07-25T01:30:04;14.60;;;2.40;;
8675;SDS011;4375;52.486;13.424;2022-07-25T01:32:31;15.37;;;2.87;;
8675;SDS011;4375;52.486;13.424;2022-07-25T01:34:57;15.07;;;2.40;;
8675;SDS011;4375;52.486;13.424;2022-07-25T01:37:23;16.77;;;2.60;;
8675;SDS011;4375;52.486;13.424;2022-07-25T01:39:49;16.40;;;2.90;;
8675;SDS011;4375;52.486;13.424;2022-07-25T01:42:14;15.70;;;2.63;;
8675;SDS011;4375;52.486;13.424;2022-07-25T01:44:40;15.63;;;2.73;;
8675;SDS011;4375;52.486;13.424;2022-07-25T01:47:06;15.50;;;2.50;;
8675;SDS011;4375;52.486;13.424;2022-07-25T01:49:31;14.90;;;2.47;;
8675;SDS011;4375;52.486;13.424;2022-07-25T01:51:57;15.90;;;3.10;;
8675;SDS011;4375;52.486;13.424;2022-07-25T01:54:23;15.80;;;2.73;;
8675;SDS011;4375;52.486;13.424;2022-07-25T01:56:48;15.47;;;2.70;;
8675;SDS011;4375;52.486;13.424;2022-07-25T01:59:14;15.20;;;2.80;;
8675;SDS011;4375;52.486;13.424;2022-07-25T02:01:40;16.43;;;2.47;;
8675;SDS011;4375;52.486;13.424;2022-07-25T02:04:06;15.53;;;2.53;;
8675;SDS011;4375;52.486;13.424;2022-07-25T02:06:32;15.30;;;2.73;;
8675;SDS011;4375;52.486;13.424;2022-07-25T02:08:59;16.27;;;2.73;;
8675;SDS011;4375;52.486;13.424;2022-07-25T02:11:25;15.17;;;2.67;;
8675;SDS011;4375;52.486;13.424;2022-07-25T02:13:50;15.63;;;2.77;;
8675;SDS011;4375;52.486;13.424;2022-07-25T02:16:16;15.20;;;2.83;;
8675;SDS011;4375;52.486;13.424;2022-07-25T02:18:42;15.00;;;2.57;;
8675;SDS011;4375;52.486;13.424;2022-07-25T02:21:08;16.20;;;2.70;;
8675;SDS011;4375;52.486;13.424;2022-07-25T02:23:35;15.40;;;2.70;;
8675;SDS011;4375;52.486;13.424;2022-07-25T02:26:01;16.00;;;2.60;;
8675;SDS011;4375;52.486;13.424;2022-07-25T02:28:27;15.57;;;2.63;;
8675;SDS011;4375;52.486;13.424;2022-07-25T02:30:53;15.80;;;2.77;;
8675;SDS011;4375;52.486;13.424;2022-07-25T02:33:18;16.00;;;2.70;;
8675;SDS011;4375;52.486;13.424;2022-07-25T02:35:44;14.93;;;2.53;;
8675;SDS011;4375;52.486;13.424;2022-07-25T02:38:10;15.40;;;2.90;;
8675;SDS011;4375;52.486;13.424;2022-07-25T02:40:42;16.30;;;2.90;;
8675;SDS011;4375;52.486;13.424;2022-07-25T02:43:08;15.93;;;2.40;;
8675;SDS011;4375;52.486;13.424;2022-07-25T02:45:33;15.60;;;2.30;;
8675;SDS011;4375;52.486;13.424;2022-07-25T02:47:59;16.50;;;2.53;;
8675;SDS011;4375;52.486;13.424;2022-07-25T02:50:25;15.03;;;2.50;;
8675;SDS011;4375;52.486;13.424;2022-07-25T02:52:50;16.47;;;3.17;;
8675;SDS011;4375;52.486;13.424;2022-07-25T02:55:16;15.00;;;2.60;;
8675;SDS011;4375;52.486;13.424;2022-07-25T02:57:42;14.80;;;2.63;;
8675;SDS011;4375;52.486;13.424;2022-07-25T03:00:07;14.87;;;2.57;;
8675;SDS011;4375;52.486;13.424;2022-07-25T03:02:34;15.07;;;2.70;;
8675;SDS011;4375;52.486;13.424;2022-07-25T03:05:00;18.00;;;2.50;;
8675;SDS011;4375;52.486;13.424;2022-07-25T03:07:25;15.27;;;2.67;;
8675;SDS011;4375;52.486;13.424;2022-07-25T03:09:51;16.17;;;2.73;;
8675;SDS011;4375;52.486;13.424;2022-07-25T03:12:17;14.90;;;2.80;;
8675;SDS011;4375;52.486;13.424;2022-07-25T03:14:42;16.57;;;2.33;;
8675;SDS011;4375;52.486;13.424;2022-07-25T03:17:08;15.67;;;2.63;;
8675;SDS011;4375;52.486;13.424;2022-07-25T03:19:34;14.77;;;2.40;;
8675;SDS011;4375;52.486;13.424;2022-07-25T03:21:59;16.63;;;2.57;;
8675;SDS011;4375;52.486;13.424;2022-07-25T03:24:25;16.30;;;2.70;;
8675;SDS011;4375;52.486;13.424;2022-07-25T03:26:50;16.43;;;3.00;;
8675;SDS011;4375;52.486;13.424;2022-07-25T03:29:16;15.90;;;2.80;;
8675;SDS011;4375;52.486;13.424;2022-07-25T03:31:42;14.97;;;2.70;;
8675;SDS011;4375;52.486;13.424;2022-07-25T03:34:08;16.50;;;2.63;;
8675;SDS011;4375;52.486;13.424;2022-07-25T03:36:34;18.33;;;3.10;;
8675;SDS011;4375;52.486;13.424;2022-07-25T03:38:59;16.10;;;2.60;;
8675;SDS011;4375;52.486;13.424;2022-07-25T03:41:25;15.57;;;2.60;;
8675;SDS011;4375;52.486;13.424;2022-07-25T03:43:51;15.83;;;2.80;;
8675;SDS011;4375;52.486;13.424;2022-07-25T03:46:17;15.20;;;2.80;;
8675;SDS011;4375;52.486;13.424;2022-07-25T03:48:42;17.30;;;2.80;;
8675;SDS011;4375;52.486;13.424;2022-07-25T03:51:08;16.27;;;2.80;;
8675;SDS011;4375;52.486;13.424;2022-07-25T03:53:34;16.73;;;3.40;;
8675;SDS011;4375;52.486;13.424;2022-07-25T03:56:20;15.33;;;2.70;;
8675;SDS011;4375;52.486;13.424;2022-07-25T03:58:45;15.80;;;2.70;;
8675;SDS011;4375;52.486;13.424;2022-07-25T04:01:11;16.00;;;2.30;;
8675;SDS011;4375;52.486;13.424;2022-07-25T04:03:37;15.67;;;2.77;;
8675;SDS011;4375;52.486;13.424;2022-07-25T04:06:02;15.77;;;2.60;;
8675;SDS011;4375;52.486;13.424;2022-07-25T04:08:28;16.90;;;2.53;;
8675;SDS011;4375;52.486;13.424;2022-07-25T04:10:54;16.03;;;2.93;;
8675;SDS011;4375;52.486;13.424;2022-07-25T04:13:19;15.23;;;2.50;;
8675;SDS011;4375;52.486;13.424;2022-07-25T04:15:45;17.57;;;2.57;;
8675;SDS011;4375;52.486;13.424;2022-07-25T04:18:11;15.07;;;2.90;;
8675;SDS011;4375;52.486;13.424;2022-07-25T04:20:36;14.93;;;2.47;;
8675;SDS011;4375;52.486;13.424;2022-07-25T04:23:02;14.50;;;2.27;;
8675;SDS011;4375;52.486;13.424;2022-07-25T04:25:27;17.60;;;3.13;;
8675;SDS011;4375;52.486;13.424;2022-07-25T04:27:53;15.70;;;2.80;;
8675;SDS011;4375;52.486;13.424;2022-07-25T04:30:19;16.00;;;2.70;;
8675;SDS011;4375;52.486;13.424;2022-07-25T04:32:45;15.30;;;2.70;;
8675;SDS011;4375;52.486;13.424;2022-07-25T04:35:10;16.40;;;3.40;;
8675;SDS011;4375;52.486;13.424;2022-07-25T04:37:36;15.87;;;3.00;;
8675;SDS011;4375;52.486;13.424;2022-07-25T04:40:02;16.87;;;3.80;;
8675;SDS011;4375;52.486;13.424;2022-07-25T04:42:29;15.90;;;2.30;;
8675;SDS011;4375;52.486;13.424;2022-07-25T04:44:55;16.97;;;2.70;;
8675;SDS011;4375;52.486;13.424;2022-07-25T04:47:20;17.20;;;3.00;;
8675;SDS011;4375;52.486;13.424;2022-07-25T04:49:46;16.47;;;2.97;;
8675;SDS011;4375;52.486;13.424;2022-07-25T04:52:12;16.23;;;2.63;;
8675;SDS011;4375;52.486;13.424;2022-07-25T04:54:37;15.33;;;2.97;;
8675;SDS011;4375;52.486;13.424;2022-07-25T04:57:03;14.80;;;2.53;;
8675;SDS011;4375;52.486;13.424;2022-07-25T04:59:29;15.60;;;2.57;;
8675;SDS011;4375;52.486;13.424;2022-07-25T05:01:55;16.30;;;3.10;;
8675;SDS011;4375;52.486;13.424;2022-07-25T05:04:21;14.60;;;2.03;;
8675;SDS011;4375;52.486;13.424;2022-07-25T05:06:47;15.20;;;2.80;;
8675;SDS011;4375;52.486;13.424;2022-07-25T05:09:12;15.70;;;3.00;;
8675;SDS011;4375;52.486;13.424;2022-07-25T05:11:38;15.40;;;3.03;;
8675;SDS011;4375;52.486;13.424;2022-07-25T05:14:04;16.97;;;2.37;;
8675;SDS011;4375;52.486;13.424;2022-07-25T05:16:29;16.63;;;2.77;;
8675;SDS011;4375;52.486;13.424;2022-07-25T05:18:55;16.23;;;2.83;;
8675;SDS011;4375;52.486;13.424;2022-07-25T05:21:20;15.10;;;3.07;;
8675;SDS011;4375;52.486;13.424;2022-07-25T05:23:46;16.57;;;2.77;;
8675;SDS011;4375;52.486;13.424;2022-07-25T05:26:12;16.70;;;2.53;;
8675;SDS011;4375;52.486;13.424;2022-07-25T05:28:37;19.90;;;2.80;;
8675;SDS011;4375;52.486;13.424;2022-07-25T05:31:03;15.93;;;3.13;;
8675;SDS011;4375;52.486;13.424;2022-07-25T05:33:29;21.37;;;5.43;;
8675;SDS011;4375;52.486;13.424;2022-07-25T05:35:55;15.90;;;3.00;;
8675;SDS011;4375;52.486;13.424;2022-07-25T05:38:20;23.03;;;3.60;;
8675;SDS011;4375;52.486;13.424;2022-07-25T05:40:46;15.47;;;3.10;;
8675;SDS011;4375;52.486;13.424;2022-07-25T05:43:12;20.03;;;3.03;;
8675;SDS011;4375;52.486;13.424;2022-07-25T05:45:37;17.60;;;3.70;;
8675;SDS011;4375;52.486;13.424;2022-07-25T05:48:03;16.03;;;3.30;;
8675;SDS011;4375;52.486;13.424;2022-07-25T05:50:29;16.97;;;2.70;;
8675;SDS011;4375;52.486;13.424;2022-07-25T05:52:54;15.60;;;2.90;;
8675;SDS011;4375;52.486;13.424;2022-07-25T05:55:20;18.13;;;3.77;;
8675;SDS011;4375;52.486;13.424;2022-07-25T05:57:46;20.10;;;3.87;;
8675;SDS011;4375;52.486;13.424;2022-07-25T06:00:12;16.27;;;3.50;;
8675;SDS011;4375;52.486;13.424;2022-07-25T06:02:38;17.53;;;3.10;;
8675;SDS011;4375;52.486;13.424;2022-07-25T06:05:03;17.00;;;3.37;;
8675;SDS011;4375;52.486;13.424;2022-07-25T06:07:29;16.10;;;3.00;;
8675;SDS011;4375;52.486;13.424;2022-07-25T06:09:55;25.50;;;3.37;;
8675;SDS011;4375;52.486;13.424;2022-07-25T06:12:20;17.70;;;3.10;;
8675;SDS011;4375;52.486;13.424;2022-07-25T06:14:46;17.10;;;3.73;;
8675;SDS011;4375;52.486;13.424;2022-07-25T06:17:12;21.17;;;3.83;;
8675;SDS011;4375;52.486;13.424;2022-07-25T06:19:37;18.00;;;3.67;;
8675;SDS011;4375;52.486;13.424;2022-07-25T06:22:03;18.33;;;3.40;;
8675;SDS011;4375;52.486;13.424;2022-07-25T06:24:28;18.03;;;3.40;;
8675;SDS011;4375;52.486;13.424;2022-07-25T06:26:54;18.97;;;4.80;;
8675;SDS011;4375;52.486;13.424;2022-07-25T06:29:20;20.13;;;3.90;;
8675;SDS011;4375;52.486;13.424;2022-07-25T06:31:45;18.47;;;3.97;;
8675;SDS011;4375;52.486;13.424;2022-07-25T06:34:11;17.10;;;3.87;;
8675;SDS011;4375;52.486;13.424;2022-07-25T06:36:37;24.97;;;3.60;;
8675;SDS011;4375;52.486;13.424;2022-07-25T06:39:02;16.60;;;3.70;;
8675;SDS011;4375;52.486;13.424;2022-07-25T06:41:28;17.30;;;3.90;;
8675;SDS011;4375;52.486;13.424;2022-07-25T06:43:54;18.00;;;3.93;;
8675;SDS011;4375;52.486;13.424;2022-07-25T06:46:19;20.07;;;4.07;;
8675;SDS011;4375;52.486;13.424;2022-07-25T06:48:45;23.97;;;4.00;;
8675;SDS011;4375;52.486;13.424;2022-07-25T06:51:11;25.33;;;4.67;;
8675;SDS011;4375;52.486;13.424;2022-07-25T06:53:36;19.77;;;4.43;;
8675;SDS011;4375;52.486;13.424;2022-07-25T06:56:02;18.50;;;4.47;;
8675;SDS011;4375;52.486;13.424;2022-07-25T06:58:28;17.00;;;4.47;;
8675;SDS011;4375;52.486;13.424;2022-07-25T07:00:53;16.97;;;3.87;;
8675;SDS011;4375;52.486;13.424;2022-07-25T07:03:19;22.37;;;3.90;;
8675;SDS011;4375;52.486;13.424;2022-07-25T07:05:45;17.43;;;4.10;;
8675;SDS011;4375;52.486;13.424;2022-07-25T07:08:11;16.77;;;4.20;;
8675;SDS011;4375;52.486;13.424;2022-07-25T07:10:37;17.50;;;4.30;;
8675;SDS011;4375;52.486;13.424;2022-07-25T07:15:34;16.20;;;3.87;;
8675;SDS011;4375;52.486;13.424;2022-07-25T07:18:00;18.90;;;4.50;;
8675;SDS011;4375;52.486;13.424;2022-07-25T07:20:26;23.00;;;4.73;;
8675;SDS011;4375;52.486;13.424;2022-07-25T07:22:51;18.60;;;4.47;;
8675;SDS011;4375;52.486;13.424;2022-07-25T07:25:18;18.07;;;4.83;;
8675;SDS011;4375;52.486;13.424;2022-07-25T07:27:45;18.23;;;4.07;;
8675;SDS011;4375;52.486;13.424;2022-07-25T07:30:11;16.57;;;4.50;;
8675;SDS011;4375;52.486;13.424;2022-07-25T07:32:39;17.40;;;4.60;;
8675;SDS011;4375;52.486;13.424;2022-07-25T07:35:05;16.80;;;4.87;;
8675;SDS011;4375;52.486;13.424;2022-07-25T07:37:31;20.30;;;4.90;;
8675;SDS011;4375;52.486;13.424;2022-07-25T07:39:56;20.53;;;4.97;;
8675;SDS011;4375;52.486;13.424;2022-07-25T07:42:22;18.03;;;4.27;;
8675;SDS011;4375;52.486;13.424;2022-07-25T07:44:48;18.03;;;5.20;;
8675;SDS011;4375;52.486;13.424;2022-07-25T07:47:14;19.17;;;5.23;;
8675;SDS011;4375;52.486;13.424;2022-07-25T07:49:40;23.37;;;4.57;;
8675;SDS011;4375;52.486;13.424;2022-07-25T07:52:05;16.47;;;4.20;;
8675;SDS011;4375;52.486;13.424;2022-07-25T07:54:31;16.10;;;4.50;;
8675;SDS011;4375;52.486;13.424;2022-07-25T07:57:15;16.70;;;4.20;;
8675;SDS011;4375;52.486;13.424;2022-07-25T07:59:41;16.57;;;4.37;;
8675;SDS011;4375;52.486;13.424;2022-07-25T08:02:06;18.33;;;4.80;;
8675;SDS011;4375;52.486;13.424;2022-07-25T08:04:32;15.23;;;4.50;;
8675;SDS011;4375;52.486;13.424;2022-07-25T08:06:58;16.55;;;4.35;;
8675;SDS011;4375;52.486;13.424;2022-07-25T08:09:23;17.13;;;4.68;;
8675;SDS011;4375;52.486;13.424;2022-07-25T08:11:50;18.65;;;4.63;;
8675;SDS011;4375;52.486;13.424;2022-07-25T08:14:16;25.48;;;5.28;;
8675;SDS011;4375;52.486;13.424;2022-07-25T08:16:42;16.45;;;4.55;;
8675;SDS011;4375;52.486;13.424;2022-07-25T08:19:08;17.40;;;4.57;;
8675;SDS011;4375;52.486;13.424;2022-07-25T08:21:34;16.90;;;4.10;;
8675;SDS011;4375;52.486;13.424;2022-07-25T08:27:00;16.80;;;4.72;;
8675;SDS011;4375;52.486;13.424;2022-07-25T08:29:25;16.33;;;4.50;;
8675;SDS011;4375;52.486;13.424;2022-07-25T08:31:51;18.10;;;5.30;;
8675;SDS011;4375;52.486;13.424;2022-07-25T08:34:17;16.00;;;4.95;;
8675;SDS011;4375;52.486;13.424;2022-07-25T08:36:46;18.10;;;4.97;;
8675;SDS011;4375;52.486;13.424;2022-07-25T08:39:12;18.80;;;4.88;;
8675;SDS011;4375;52.486;13.424;2022-07-25T08:41:41;15.57;;;4.30;;
8675;SDS011;4375;52.486;13.424;2022-07-25T08:44:07;16.63;;;4.55;;
8675;SDS011;4375;52.486;13.424;2022-07-25T08:46:34;14.98;;;4.53;;
8675;SDS011;4375;52.486;13.424;2022-07-25T08:49:00;17.48;;;4.95;;
8675;SDS011;4375;52.486;13.424;2022-07-25T08:51:26;15.57;;;4.72;;
8675;SDS011;4375;52.486;13.424;2022-07-25T08:53:53;16.95;;;5.68;;
8675;SDS011;4375;52.486;13.424;2022-07-25T08:56:19;18.35;;;6.05;;
8675;SDS011;4375;52.486;13.424;2022-07-25T08:58:44;16.30;;;4.90;;
8675;SDS011;4375;52.486;13.424;2022-07-25T09:01:11;17.73;;;6.13;;
8675;SDS011;4375;52.486;13.424;2022-07-25T09:03:37;17.05;;;5.65;;
8675;SDS011;4375;52.486;13.424;2022-07-25T09:06:20;15.95;;;5.70;;
8675;SDS011;4375;52.486;13.424;2022-07-25T09:08:53;19.58;;;5.43;;
8675;SDS011;4375;52.486;13.424;2022-07-25T09:11:26;16.00;;;5.20;;
8675;SDS011;4375;52.486;13.424;2022-07-25T09:13:56;17.05;;;5.80;;
8675;SDS011;4375;52.486;13.424;2022-07-25T09:16:29;18.25;;;6.00;;
8675;SDS011;4375;52.486;13.424;2022-07-25T09:19:09;16.30;;;5.70;;
8675;SDS011;4375;52.486;13.424;2022-07-25T09:21:35;19.23;;;6.40;;
8675;SDS011;4375;52.486;13.424;2022-07-25T09:24:10;21.27;;;6.30;;
8675;SDS011;4375;52.486;13.424;2022-07-25T09:26:47;21.63;;;5.68;;
8675;SDS011;4375;52.486;13.424;2022-07-25T09:29:17;17.77;;;6.20;;
8675;SDS011;4375;52.486;13.424;2022-07-25T09:35:01;17.13;;;6.65;;
8675;SDS011;4375;52.486;13.424;2022-07-25T09:37:27;19.02;;;6.55;;
8675;SDS011;4375;52.486;13.424;2022-07-25T09:39:53;18.75;;;6.18;;
8675;SDS011;4375;52.486;13.424;2022-07-25T09:42:25;17.30;;;5.40;;
8675;SDS011;4375;52.486;13.424;2022-07-25T09:44:56;21.73;;;6.50;;
8675;SDS011;4375;52.486;13.424;2022-07-25T09:47:22;16.55;;;5.70;;
8675;SDS011;4375;52.486;13.424;2022-07-25T09:49:48;18.92;;;6.50;;
8675;SDS011;4375;52.486;13.424;2022-07-25T09:52:13;18.75;;;5.95;;
8675;SDS011;4375;52.486;13.424;2022-07-25T09:54:41;20.15;;;6.40;;
8675;SDS011;4375;52.486;13.424;2022-07-25T09:57:07;17.25;;;6.78;;
8675;SDS011;4375;52.486;13.424;2022-07-25T09:59:33;16.73;;;6.07;;
8675;SDS011;4375;52.486;13.424;2022-07-25T10:03:07;19.15;;;7.25;;
8675;SDS011;4375;52.486;13.424;2022-07-25T10:07:41;17.70;;;6.67;;
8675;SDS011;4375;52.486;13.424;2022-07-25T10:10:19;18.90;;;7.00;;
8675;SDS011;4375;52.486;13.424;2022-07-25T10:15:39;20.20;;;6.77;;
8675;SDS011;4375;52.486;13.424;2022-07-25T10:18:08;18.90;;;6.77;;
8675;SDS011;4375;52.486;13.424;2022-07-25T10:20:34;21.33;;;6.90;;
8675;SDS011;4375;52.486;13.424;2022-07-25T10:23:00;18.17;;;6.80;;
8675;SDS011;4375;52.486;13.424;2022-07-25T10:25:26;18.57;;;7.00;;
8675;SDS011;4375;52.486;13.424;2022-07-25T10:27:52;18.80;;;7.13;;
8675;SDS011;4375;52.486;13.424;2022-07-25T10:30:32;19.50;;;7.33;;
8675;SDS011;4375;52.486;13.424;2022-07-25T10:33:00;20.10;;;7.03;;
8675;SDS011;4375;52.486;13.424;2022-07-25T10:35:30;21.17;;;6.63;;
8675;SDS011;4375;52.486;13.424;2022-07-25T10:37:57;20.90;;;7.10;;
8675;SDS011;4375;52.486;13.424;2022-07-25T10:43:08;19.63;;;7.23;;
8675;SDS011;4375;52.486;13.424;2022-07-25T10:48:24;19.17;;;7.80;;
8675;SDS011;4375;52.486;13.424;2022-07-25T10:53:45;22.90;;;7.60;;
8675;SDS011;4375;52.486;13.424;2022-07-25T10:58:53;19.67;;;7.80;;
8675;SDS011;4375;52.486;13.424;2022-07-25T11:01:24;21.40;;;7.47;;
8675;SDS011;4375;52.486;13.424;2022-07-25T11:03:52;22.13;;;8.10;;
8675;SDS011;4375;52.486;13.424;2022-07-25T11:06:50;23.80;;;7.70;;
8675;SDS011;4375;52.486;13.424;2022-07-25T11:11:43;21.53;;;7.37;;
8675;SDS011;4375;52.486;13.424;2022-07-25T11:14:17;19.17;;;7.73;;
8675;SDS011;4375;52.486;13.424;2022-07-25T11:16:57;19.43;;;7.13;;
8675;SDS011;4375;52.486;13.424;2022-07-25T11:22:24;23.47;;;8.00;;
8675;SDS011;4375;52.486;13.424;2022-07-25T11:24:50;24.57;;;7.77;;
8675;SDS011;4375;52.486;13.424;2022-07-25T11:27:23;20.20;;;7.57;;
8675;SDS011;4375;52.486;13.424;2022-07-25T11:29:50;20.17;;;7.30;;
8675;SDS011;4375;52.486;13.424;2022-07-25T11:32:16;19.73;;;7.10;;
8675;SDS011;4375;52.486;13.424;2022-07-25T11:34:48;19.70;;;7.07;;
8675;SDS011;4375;52.486;13.424;2022-07-25T11:37:18;19.00;;;7.13;;
8675;SDS011;4375;52.486;13.424;2022-07-25T11:39:45;19.70;;;7.30;;
8675;SDS011;4375;52.486;13.424;2022-07-25T11:42:18;18.73;;;7.50;;
8675;SDS011;4375;52.486;13.424;2022-07-25T11:49:53;21.33;;;7.60;;
8675;SDS011;4375;52.486;13.424;2022-07-25T11:52:23;20.40;;;8.17;;
8675;SDS011;4375;52.486;13.424;2022-07-25T11:54:54;17.80;;;6.73;;
8675;SDS011;4375;52.486;13.424;2022-07-25T11:57:26;19.40;;;7.43;;
8675;SDS011;4375;52.486;13.424;2022-07-25T11:59:53;20.40;;;7.40;;
8675;SDS011;4375;52.486;13.424;2022-07-25T12:02:23;22.10;;;7.30;;
8675;SDS011;4375;52.486;13.424;2022-07-25T12:04:55;21.80;;;7.80;;
8675;SDS011;4375;52.486;13.424;2022-07-25T12:07:34;20.20;;;7.60;;
8675;SDS011;4375;52.486;13.424;2022-07-25T12:10:05;20.70;;;8.00;;
8675;SDS011;4375;52.486;13.424;2022-07-25T12:15:13;20.63;;;7.43;;
8675;SDS011;4375;52.486;13.424;2022-07-25T12:17:40;20.23;;;7.53;;
8675;SDS011;4375;52.486;13.424;2022-07-25T12:20:26;21.17;;;8.43;;
8675;SDS011;4375;52.486;13.424;2022-07-25T12:22:54;22.40;;;7.43;;
8675;SDS011;4375;52.486;13.424;2022-07-25T12:25:21;19.40;;;7.60;;
8675;SDS011;4375;52.486;13.424;2022-07-25T12:27:47;20.50;;;7.60;;
8675;SDS011;4375;52.486;13.424;2022-07-25T12:30:13;18.57;;;7.50;;
8675;SDS011;4375;52.486;13.424;2022-07-25T12:32:40;21.83;;;7.80;;
8675;SDS011;4375;52.486;13.424;2022-07-25T12:35:07;19.70;;;7.20;;
8675;SDS011;4375;52.486;13.424;2022-07-25T12:37:34;19.13;;;7.50;;
8675;SDS011;4375;52.486;13.424;2022-07-25T12:40:00;19.03;;;7.23;;
8675;SDS011;4375;52.486;13.424;2022-07-25T12:42:27;20.30;;;8.10;;
8675;SDS011;4375;52.486;13.424;2022-07-25T12:44:53;19.17;;;7.03;;
8675;SDS011;4375;52.486;13.424;2022-07-25T12:47:20;21.03;;;6.90;;
8675;SDS011;4375;52.486;13.424;2022-07-25T12:49:49;20.83;;;7.83;;
8675;SDS011;4375;52.486;13.424;2022-07-25T12:52:15;20.47;;;8.30;;
8675;SDS011;4375;52.486;13.424;2022-07-25T12:54:41;17.97;;;7.03;;
8675;SDS011;4375;52.486;13.424;2022-07-25T12:57:07;20.93;;;7.40;;
8675;SDS011;4375;52.486;13.424;2022-07-25T12:59:34;20.97;;;7.17;;
8675;SDS011;4375;52.486;13.424;2022-07-25T13:02:00;19.20;;;7.00;;
8675;SDS011;4375;52.486;13.424;2022-07-25T13:04:26;18.53;;;7.63;;
8675;SDS011;4375;52.486;13.424;2022-07-25T13:06:56;18.67;;;6.83;;
8675;SDS011;4375;52.486;13.424;2022-07-25T13:09:23;22.57;;;7.30;;
8675;SDS011;4375;52.486;13.424;2022-07-25T13:11:49;23.43;;;8.43;;
8675;SDS011;4375;52.486;13.424;2022-07-25T13:14:16;19.33;;;6.70;;
8675;SDS011;4375;52.486;13.424;2022-07-25T13:16:44;18.27;;;6.80;;
8675;SDS011;4375;52.486;13.424;2022-07-25T13:19:11;19.50;;;7.40;;
8675;SDS011;4375;52.486;13.424;2022-07-25T13:21:37;21.53;;;7.00;;
8675;SDS011;4375;52.486;13.424;2022-07-25T13:24:03;20.13;;;7.03;;
8675;SDS011;4375;52.486;13.424;2022-07-25T13:26:31;24.87;;;7.80;;
8675;SDS011;4375;52.486;13.424;2022-07-25T13:28:57;18.20;;;6.93;;
8675;SDS011;4375;52.486;13.424;2022-07-25T13:31:23;21.20;;;8.10;;
8675;SDS011;4375;52.486;13.424;2022-07-25T13:33:49;19.20;;;8.00;;
8675;SDS011;4375;52.486;13.424;2022-07-25T13:36:15;21.43;;;7.20;;
8675;SDS011;4375;52.486;13.424;2022-07-25T13:38:42;18.23;;;6.80;;
8675;SDS011;4375;52.486;13.424;2022-07-25T13:41:08;19.23;;;7.20;;
8675;SDS011;4375;52.486;13.424;2022-07-25T13:43:35;19.17;;;7.17;;
8675;SDS011;4375;52.486;13.424;2022-07-25T13:46:01;19.20;;;7.40;;
8675;SDS011;4375;52.486;13.424;2022-07-25T13:48:27;19.07;;;7.93;;
8675;SDS011;4375;52.486;13.424;2022-07-25T13:50:56;19.10;;;6.93;;
8675;SDS011;4375;52.486;13.424;2022-07-25T13:53:23;19.33;;;7.30;;
8675;SDS011;4375;52.486;13.424;2022-07-25T13:55:48;29.93;;;7.20;;
8675;SDS011;4375;52.486;13.424;2022-07-25T13:58:18;19.00;;;6.33;;
8675;SDS011;4375;52.486;13.424;2022-07-25T14:00:43;18.13;;;6.80;;
8675;SDS011;4375;52.486;13.424;2022-07-25T14:03:11;19.40;;;7.30;;
8675;SDS011;4375;52.486;13.424;2022-07-25T14:05:39;20.70;;;7.30;;
8675;SDS011;4375;52.486;13.424;2022-07-25T14:08:06;22.83;;;7.00;;
8675;SDS011;4375;52.486;13.424;2022-07-25T14:10:37;19.53;;;6.50;;
8675;SDS011;4375;52.486;13.424;2022-07-25T14:13:14;20.07;;;7.37;;
8675;SDS011;4375;52.486;13.424;2022-07-25T14:15:40;22.43;;;7.67;;
8675;SDS011;4375;52.486;13.424;2022-07-25T14:18:05;21.03;;;6.13;;
8675;SDS011;4375;52.486;13.424;2022-07-25T14:20:31;19.27;;;6.83;;
8675;SDS011;4375;52.486;13.424;2022-07-25T14:22:57;19.50;;;6.97;;
8675;SDS011;4375;52.486;13.424;2022-07-25T14:25:23;18.30;;;7.00;;
8675;SDS011;4375;52.486;13.424;2022-07-25T14:27:48;23.53;;;6.63;;
8675;SDS011;4375;52.486;13.424;2022-07-25T14:30:14;17.90;;;6.83;;
8675;SDS011;4375;52.486;13.424;2022-07-25T14:32:39;23.77;;;6.97;;
8675;SDS011;4375;52.486;13.424;2022-07-25T14:35:05;20.93;;;6.97;;
8675;SDS011;4375;52.486;13.424;2022-07-25T14:37:32;19.93;;;6.73;;
8675;SDS011;4375;52.486;13.424;2022-07-25T14:39:58;19.00;;;6.97;;
8675;SDS011;4375;52.486;13.424;2022-07-25T14:42:24;19.67;;;7.97;;
8675;SDS011;4375;52.486;13.424;2022-07-25T14:44:50;18.70;;;6.67;;
8675;SDS011;4375;52.486;13.424;2022-07-25T14:47:15;18.17;;;6.90;;
8675;SDS011;4375;52.486;13.424;2022-07-25T14:49:41;20.00;;;7.00;;
8675;SDS011;4375;52.486;13.424;2022-07-25T14:52:07;19.30;;;7.30;;
8675;SDS011;4375;52.486;13.424;2022-07-25T14:54:34;17.83;;;6.47;;
8675;SDS011;4375;52.486;13.424;2022-07-25T14:57:00;20.93;;;7.27;;
8675;SDS011;4375;52.486;13.424;2022-07-25T14:59:26;18.67;;;6.97;;
8675;SDS011;4375;52.486;13.424;2022-07-25T15:01:52;19.40;;;7.60;;
8675;SDS011;4375;52.486;13.424;2022-07-25T15:04:18;18.57;;;6.73;;
8675;SDS011;4375;52.486;13.424;2022-07-25T15:06:46;19.50;;;7.93;;
8675;SDS011;4375;52.486;13.424;2022-07-25T15:09:12;23.70;;;6.93;;
8675;SDS011;4375;52.486;13.424;2022-07-25T15:11:38;20.03;;;7.20;;
8675;SDS011;4375;52.486;13.424;2022-07-25T15:14:04;20.27;;;6.77;;
8675;SDS011;4375;52.486;13.424;2022-07-25T15:16:29;19.97;;;7.00;;
8675;SDS011;4375;52.486;13.424;2022-07-25T15:18:55;18.70;;;6.83;;
8675;SDS011;4375;52.486;13.424;2022-07-25T15:21:21;18.63;;;6.97;;
8675;SDS011;4375;52.486;13.424;2022-07-25T15:23:47;19.03;;;7.00;;
8675;SDS011;4375;52.486;13.424;2022-07-25T15:26:13;20.07;;;7.07;;